createdAt,value
2024-01-17T00:00:10.659Z,-2.10
2024-01-17T00:02:37.790Z,-2.10
2024-01-17T00:05:05.564Z,-2.10
2024-01-17T00:07:32.438Z,-2.00
2024-01-17T00:09:59.285Z,-2.00
2024-01-17T00:12:26.753Z,-2.00
2024-01-17T00:14:53.888Z,-2.10
2024-01-17T00:17:21.386Z,-2.10
2024-01-17T00:19:48.466Z,-2.00
2024-01-17T00:22:17.260Z,-2.00
2024-01-17T00:24:44.540Z,-2.00
2024-01-17T00:27:14.460Z,-2.00
2024-01-17T00:29:41.804Z,-2.10
2024-01-17T00:32:09.010Z,-2.00
2024-01-17T00:34:40.175Z,-2.10
2024-01-17T00:37:07.629Z,-2.10
2024-01-17T00:39:34.625Z,-2.10
2024-01-17T00:42:02.204Z,-2.10
2024-01-17T00:44:30.164Z,-2.10
2024-01-17T00:46:57.152Z,-2.20
2024-01-17T00:49:24.197Z,-2.20
2024-01-17T00:51:51.419Z,-2.30
2024-01-17T00:54:18.302Z,-2.30
2024-01-17T00:56:45.172Z,-2.40
2024-01-17T00:59:12.370Z,-2.50
2024-01-17T01:01:39.464Z,-2.50
2024-01-17T01:04:06.381Z,-2.50
2024-01-17T01:06:33.437Z,-2.50
2024-01-17T01:09:00.508Z,-2.50
2024-01-17T01:11:31.714Z,-2.50
2024-01-17T01:13:58.857Z,-2.50
2024-01-17T01:16:25.701Z,-2.60
2024-01-17T01:18:53.016Z,-2.60
2024-01-17T01:21:20.571Z,-2.50
2024-01-17T01:23:48.132Z,-2.40
2024-01-17T01:26:15.328Z,-2.50
2024-01-17T01:28:42.584Z,-2.50
2024-01-17T01:31:10.905Z,-2.40
2024-01-17T01:33:38.102Z,-2.40
2024-01-17T01:36:06.494Z,-2.40
2024-01-17T01:38:33.424Z,-2.50
2024-01-17T01:41:00.553Z,-2.50
2024-01-17T01:43:27.417Z,-2.50
2024-01-17T01:46:27.339Z,-2.50
2024-01-17T01:48:54.857Z,-2.50
2024-01-17T01:51:22.799Z,-2.60
2024-01-17T01:53:53.582Z,-2.60
2024-01-17T01:56:23.835Z,-2.60
2024-01-17T01:58:54.273Z,-2.70
2024-01-17T02:01:21.598Z,-2.70
2024-01-17T02:03:49.328Z,-2.70
2024-01-17T02:06:18.408Z,-2.70
2024-01-17T02:08:46.082Z,-2.70
2024-01-17T02:11:13.485Z,-2.60
2024-01-17T02:13:41.318Z,-2.60
2024-01-17T02:16:08.324Z,-2.60
2024-01-17T02:18:35.412Z,-2.50
2024-01-17T02:21:02.477Z,-2.60
2024-01-17T02:23:30.055Z,-2.60
2024-01-17T02:25:58.727Z,-2.60
2024-01-17T02:28:31.444Z,-2.60
2024-01-17T02:31:01.768Z,-2.50
2024-01-17T02:33:29.372Z,-2.60
2024-01-17T02:35:56.784Z,-2.50
2024-01-17T02:38:23.742Z,-2.60
2024-01-17T02:40:51.010Z,-2.60
2024-01-17T02:43:17.781Z,-2.60
2024-01-17T02:45:44.569Z,-2.60
2024-01-17T02:48:11.793Z,-2.50
2024-01-17T02:50:40.224Z,-2.50
2024-01-17T02:53:07.788Z,-2.60
2024-01-17T02:55:34.856Z,-2.60
2024-01-17T02:58:02.480Z,-2.50
2024-01-17T03:00:29.355Z,-2.50
2024-01-17T03:02:56.269Z,-2.40
2024-01-17T03:05:23.049Z,-2.40
2024-01-17T03:07:50.153Z,-2.50
2024-01-17T03:10:17.065Z,-2.40
2024-01-17T03:12:44.183Z,-2.50
2024-01-17T03:15:12.391Z,-2.50
2024-01-17T03:17:40.060Z,-2.50
2024-01-17T03:20:08.551Z,-2.50
2024-01-17T03:22:35.391Z,-2.60
2024-01-17T03:25:02.494Z,-2.70
2024-01-17T03:27:29.556Z,-2.80
2024-01-17T03:29:56.750Z,-2.80
2024-01-17T03:32:23.831Z,-2.80
2024-01-17T03:34:52.940Z,-2.80
2024-01-17T03:37:19.876Z,-2.70
2024-01-17T03:39:46.757Z,-2.70
2024-01-17T03:42:16.793Z,-2.70
2024-01-17T03:44:47.957Z,-2.70
2024-01-17T03:47:14.889Z,-2.80
2024-01-17T03:49:42.062Z,-2.80
2024-01-17T03:52:09.026Z,-2.90
2024-01-17T03:54:38.085Z,-2.90
2024-01-17T03:57:06.210Z,-2.90
2024-01-17T03:59:33.465Z,-2.90
2024-01-17T04:02:00.390Z,-2.90
2024-01-17T04:04:27.568Z,-2.90
2024-01-17T04:06:55.037Z,-2.90
2024-01-17T04:09:22.369Z,-2.80
2024-01-17T04:11:49.594Z,-2.80
2024-01-17T04:14:16.983Z,-2.90
2024-01-17T04:16:43.861Z,-2.90
2024-01-17T04:19:11.232Z,-2.80
2024-01-17T04:21:38.604Z,-2.80
2024-01-17T04:24:06.195Z,-2.80
2024-01-17T04:26:33.696Z,-2.80
2024-01-17T04:29:00.706Z,-2.80
2024-01-17T04:31:29.468Z,-2.80
2024-01-17T04:33:58.751Z,-2.80
2024-01-17T04:36:29.537Z,-2.80
2024-01-17T04:38:56.712Z,-2.80
2024-01-17T04:41:24.169Z,-2.80
2024-01-17T04:43:51.362Z,-2.80
2024-01-17T04:46:18.918Z,-2.80
2024-01-17T04:48:46.852Z,-2.80
2024-01-17T04:51:14.972Z,-2.90
2024-01-17T04:53:45.526Z,-2.90
2024-01-17T04:56:14.423Z,-2.90
2024-01-17T04:58:41.890Z,-2.90
2024-01-17T05:01:09.950Z,-2.90
2024-01-17T05:03:37.524Z,-2.90
2024-01-17T05:06:06.394Z,-2.80
2024-01-17T05:08:33.921Z,-2.90
2024-01-17T05:11:01.279Z,-2.80
2024-01-17T05:13:28.265Z,-2.80
2024-01-17T05:15:55.439Z,-2.90
2024-01-17T05:18:23.667Z,-2.90
2024-01-17T05:20:50.534Z,-2.90
2024-01-17T05:23:17.303Z,-3.00
2024-01-17T05:25:44.269Z,-3.00
2024-01-17T05:28:12.536Z,-3.00
2024-01-17T05:30:39.694Z,-2.90
2024-01-17T05:33:07.268Z,-2.90
2024-01-17T05:35:34.507Z,-2.80
2024-01-17T05:38:01.966Z,-2.90
2024-01-17T05:40:29.442Z,-2.90
2024-01-17T05:42:58.204Z,-2.90
2024-01-17T05:45:25.375Z,-2.90
2024-01-17T05:47:52.266Z,-2.90
2024-01-17T05:50:19.280Z,-2.90
2024-01-17T05:52:51.993Z,-2.80
2024-01-17T05:55:20.445Z,-2.80
2024-01-17T05:57:47.365Z,-2.80
2024-01-17T06:00:14.914Z,-2.80
2024-01-17T06:02:43.150Z,-2.90
2024-01-17T06:05:10.548Z,-3.00
2024-01-17T06:07:38.143Z,-3.10
2024-01-17T06:10:05.667Z,-3.10
2024-01-17T06:12:33.396Z,-3.00
2024-01-17T06:15:00.348Z,-3.00
2024-01-17T06:17:27.630Z,-3.00
2024-01-17T06:19:54.529Z,-3.00
2024-01-17T06:22:21.396Z,-2.90
2024-01-17T06:24:48.392Z,-3.00
2024-01-17T06:27:16.348Z,-3.00
2024-01-17T06:29:44.968Z,-3.10
2024-01-17T06:32:13.006Z,-3.00
2024-01-17T06:34:41.138Z,-3.10
2024-01-17T06:37:08.287Z,-3.10
2024-01-17T06:39:35.500Z,-3.00
2024-01-17T06:42:03.903Z,-2.90
2024-01-17T06:44:31.293Z,-2.80
2024-01-17T06:46:59.392Z,-2.70
2024-01-17T06:49:27.241Z,-2.70
2024-01-17T06:51:56.445Z,-2.70
2024-01-17T06:54:23.533Z,-2.60
2024-01-17T06:56:50.904Z,-2.70
2024-01-17T06:59:18.169Z,-2.60
2024-01-17T07:01:45.188Z,-2.60
2024-01-17T07:04:13.232Z,-2.60
2024-01-17T07:06:40.390Z,-2.50
2024-01-17T07:09:09.240Z,-2.50
2024-01-17T07:11:36.020Z,-2.40
2024-01-17T07:14:02.764Z,-2.40
2024-01-17T07:16:29.874Z,-2.30
2024-01-17T07:18:59.264Z,-2.40
2024-01-17T07:21:26.138Z,-2.40
2024-01-17T07:23:53.320Z,-2.30
2024-01-17T07:26:20.178Z,-2.20
2024-01-17T07:28:49.525Z,-2.20
2024-01-17T07:31:17.630Z,-2.10
2024-01-17T07:33:55.060Z,-2.10
2024-01-17T07:36:22.904Z,-2.20
2024-01-17T07:38:49.946Z,-2.40
2024-01-17T07:41:16.850Z,-2.50
2024-01-17T07:43:44.700Z,-2.60
2024-01-17T07:46:14.205Z,-2.60
2024-01-17T07:48:45.101Z,-2.70
2024-01-17T07:51:13.277Z,-2.80
2024-01-17T07:53:40.933Z,-2.80
2024-01-17T07:56:07.868Z,-2.80
2024-01-17T07:58:34.958Z,-2.70
2024-01-17T08:01:02.095Z,-2.80
2024-01-17T08:03:31.430Z,-2.70
2024-01-17T08:10:02.088Z,-2.70
2024-01-17T08:12:30.754Z,-2.80
2024-01-17T08:14:57.798Z,-2.80
2024-01-17T08:17:24.737Z,-2.80
2024-01-17T08:19:52.208Z,-2.70
2024-01-17T08:22:19.198Z,-2.70
2024-01-17T08:24:47.990Z,-2.70
2024-01-17T08:27:14.860Z,-2.70
2024-01-17T08:29:45.030Z,-2.70
2024-01-17T08:32:12.293Z,-2.60
2024-01-17T08:34:39.225Z,-2.60
2024-01-17T08:37:06.165Z,-2.50
2024-01-17T08:39:33.412Z,-2.50
2024-01-17T08:42:00.374Z,-2.50
2024-01-17T08:44:28.435Z,-2.40
2024-01-17T08:46:55.956Z,-2.40
2024-01-17T08:49:22.852Z,-2.30
2024-01-17T08:51:50.318Z,-2.30
2024-01-17T08:54:17.313Z,-2.20
2024-01-17T08:56:44.174Z,-2.10
2024-01-17T08:59:10.936Z,-2.00
2024-01-17T09:01:39.051Z,-2.00
2024-01-17T09:04:07.026Z,-2.00
2024-01-17T09:06:34.616Z,-1.90
2024-01-17T09:09:01.794Z,-1.80
2024-01-17T09:11:28.953Z,-1.80
2024-01-17T09:13:56.626Z,-1.70
2024-01-17T09:16:24.034Z,-1.60
2024-01-17T09:18:51.106Z,-1.50
2024-01-17T09:21:18.219Z,-1.50
2024-01-17T09:23:45.273Z,-1.50
2024-01-17T09:26:12.068Z,-1.40
2024-01-17T09:28:38.989Z,-1.40
2024-01-17T09:31:05.791Z,-1.30
2024-01-17T09:33:33.012Z,-1.20
2024-01-17T09:36:02.845Z,-1.20
2024-01-17T09:38:31.420Z,-1.10
2024-01-17T09:40:58.350Z,-1.00
2024-01-17T09:43:25.392Z,-1.00
2024-01-17T09:45:58.721Z,-0.90
2024-01-17T09:48:28.020Z,-0.90
2024-01-17T09:50:58.291Z,-0.80
2024-01-17T09:53:31.831Z,-0.70
2024-01-17T09:56:02.978Z,-0.50
2024-01-17T09:58:34.920Z,-0.40
2024-01-17T10:01:06.246Z,-0.40
2024-01-17T10:03:38.059Z,-0.30
2024-01-17T10:06:06.331Z,-0.30
2024-01-17T10:08:34.014Z,-0.30
2024-01-17T10:11:00.779Z,-0.20
2024-01-17T10:13:27.900Z,-0.20
2024-01-17T10:15:54.737Z,-0.10
2024-01-17T10:18:22.975Z,-0.10
2024-01-17T10:20:50.140Z,-0.10
2024-01-17T10:23:17.407Z,-0.10
2024-01-17T10:25:44.671Z,-0.10
2024-01-17T10:28:12.966Z,-0.10
2024-01-17T10:30:43.054Z,-0.10
2024-01-17T10:33:13.014Z,-0.10
2024-01-17T10:35:40.339Z,0.00
2024-01-17T10:38:07.397Z,0.00
2024-01-17T10:40:35.747Z,0.00
2024-01-17T10:43:11.063Z,0.00
2024-01-17T10:45:50.631Z,-0.10
2024-01-17T10:48:17.828Z,0.00
2024-01-17T10:50:45.988Z,0.00
2024-01-17T10:53:16.431Z,0.00
2024-01-17T10:55:46.623Z,0.00
2024-01-17T10:58:16.184Z,0.00
2024-01-17T11:01:01.550Z,0.20
2024-01-17T11:08:02.247Z,0.30
2024-01-17T11:10:30.527Z,0.30
2024-01-17T11:12:57.463Z,0.40
2024-01-17T11:15:27.861Z,0.40
2024-01-17T11:18:36.033Z,0.40
2024-01-17T11:21:05.268Z,0.50
2024-01-17T11:23:47.969Z,0.50
2024-01-17T11:26:25.047Z,0.60
2024-01-17T11:29:03.664Z,0.70
2024-01-17T11:31:47.542Z,0.70
2024-01-17T11:34:15.819Z,0.70
2024-01-17T11:36:49.470Z,0.60
2024-01-17T11:39:19.952Z,0.60
2024-01-17T11:41:50.356Z,0.70
2024-01-17T11:44:19.240Z,0.70
2024-01-17T11:46:56.560Z,0.80
2024-01-17T11:49:46.805Z,0.80
2024-01-17T11:52:49.072Z,0.80
2024-01-17T11:55:23.194Z,0.80
2024-01-17T11:57:50.715Z,0.80
2024-01-17T12:00:22.264Z,0.80
2024-01-17T12:03:45.151Z,0.80
2024-01-17T12:19:36.762Z,0.80
2024-01-17T12:55:57.069Z,1.10
2024-01-17T12:58:34.609Z,1.10
2024-01-17T13:05:24.146Z,1.00
2024-01-17T13:07:54.258Z,1.00
2024-01-17T13:10:23.937Z,0.90
2024-01-17T13:41:11.766Z,1.10
2024-01-17T13:48:19.136Z,1.00
2024-01-17T13:50:50.307Z,1.00
2024-01-17T13:53:30.649Z,1.00
2024-01-17T13:56:00.954Z,1.00
2024-01-17T13:58:28.662Z,1.00
2024-01-17T14:01:00.870Z,1.00
2024-01-17T14:12:41.188Z,0.90
2024-01-17T14:20:05.850Z,0.90
2024-01-17T14:22:33.648Z,0.80
2024-01-17T14:25:00.394Z,0.80
2024-01-17T14:31:39.388Z,0.80
2024-01-17T14:34:11.116Z,0.80
2024-01-17T14:36:38.481Z,0.80
2024-01-17T14:39:12.587Z,0.80
2024-01-17T14:41:39.527Z,0.80
2024-01-17T14:44:06.476Z,0.80
2024-01-17T14:46:37.070Z,0.80
2024-01-17T14:49:05.210Z,0.80
2024-01-17T14:51:32.522Z,0.80
2024-01-17T15:02:47.543Z,0.60
2024-01-17T15:05:30.906Z,0.70
2024-01-17T15:08:08.319Z,0.60
2024-01-17T15:10:37.969Z,0.60
2024-01-17T15:13:11.511Z,0.60
2024-01-17T15:15:40.883Z,0.40
2024-01-17T15:18:10.032Z,0.30
2024-01-17T15:20:37.795Z,0.30
2024-01-17T15:23:10.749Z,0.30
2024-01-17T15:25:38.086Z,0.30
2024-01-17T15:28:07.881Z,0.20
2024-01-17T15:30:35.109Z,0.30
2024-01-17T15:33:02.269Z,0.20
2024-01-17T15:35:29.464Z,0.30
2024-01-17T15:37:56.693Z,0.30
2024-01-17T15:40:23.695Z,0.20
2024-01-17T15:42:50.481Z,0.20
2024-01-17T15:45:17.325Z,0.10
2024-01-17T15:47:44.479Z,0.20
2024-01-17T15:50:11.357Z,0.20
2024-01-17T15:52:38.275Z,0.10
2024-01-17T15:55:05.516Z,0.20
2024-01-17T15:57:33.509Z,0.20
2024-01-17T16:00:00.915Z,0.20
2024-01-17T16:02:27.939Z,0.40
2024-01-17T16:04:54.642Z,0.50
2024-01-17T16:07:21.938Z,0.60
2024-01-17T16:09:49.875Z,0.60
2024-01-17T16:12:17.441Z,0.70
2024-01-17T16:14:44.390Z,0.70
2024-01-17T16:17:12.068Z,0.70
2024-01-17T16:19:40.982Z,0.70
2024-01-17T16:22:08.134Z,0.70
2024-01-17T16:24:35.138Z,0.70
2024-01-17T16:27:01.907Z,0.70
2024-01-17T16:40:30.512Z,0.70
2024-01-17T16:44:06.913Z,0.80
2024-01-17T16:47:29.479Z,0.80
2024-01-17T16:50:05.548Z,0.70
2024-01-17T16:52:39.657Z,0.70
2024-01-17T16:55:06.784Z,0.70
2024-01-17T16:57:33.720Z,0.60
2024-01-17T17:00:07.229Z,0.60
2024-01-17T17:02:39.253Z,0.70
2024-01-17T17:05:07.125Z,0.60
2024-01-17T17:07:37.006Z,0.70
2024-01-17T17:10:04.571Z,0.70
2024-01-17T17:12:32.104Z,0.70
2024-01-17T17:14:59.553Z,0.70
2024-01-17T17:17:26.586Z,0.70
2024-01-17T17:19:53.718Z,0.70
2024-01-17T17:22:29.991Z,0.70
2024-01-17T17:25:00.885Z,0.60
2024-01-17T17:27:27.821Z,0.70
2024-01-17T17:29:54.734Z,0.70
2024-01-17T17:32:25.339Z,0.70
2024-01-17T17:34:54.028Z,0.70
2024-01-17T17:37:23.358Z,0.80
2024-01-17T17:39:50.173Z,0.70
2024-01-17T17:42:17.232Z,0.60
2024-01-17T17:44:44.308Z,0.70
2024-01-17T17:47:50.443Z,0.70
2024-01-17T17:50:46.304Z,0.70
2024-01-17T17:53:27.715Z,0.70
2024-01-17T17:56:14.373Z,0.60
2024-01-17T17:58:54.700Z,0.50
2024-01-17T18:01:44.718Z,0.40
2024-01-17T18:04:29.808Z,0.40
2024-01-17T18:07:04.653Z,0.40
2024-01-17T18:09:31.530Z,0.40
2024-01-17T18:20:55.099Z,0.40
2024-01-17T18:31:42.077Z,0.40
2024-01-17T18:50:57.796Z,0.60
2024-01-17T18:53:24.894Z,0.50
2024-01-17T18:55:55.783Z,0.50
2024-01-17T18:58:26.363Z,0.50
2024-01-17T19:00:53.584Z,0.50
2024-01-17T19:16:07.907Z,0.50
2024-01-17T19:18:35.550Z,0.50
2024-01-17T19:21:22.456Z,0.50
2024-01-17T19:23:50.277Z,0.60
2024-01-17T19:26:17.291Z,0.60
2024-01-17T19:28:44.298Z,0.50
2024-01-17T19:31:26.986Z,0.50
2024-01-17T19:34:02.270Z,0.60
2024-01-17T19:36:49.025Z,0.60
2024-01-17T19:39:21.265Z,0.60
2024-01-17T19:44:40.878Z,0.60
2024-01-17T19:47:19.776Z,0.50
2024-01-17T19:49:56.158Z,0.40
2024-01-17T19:52:39.715Z,0.50
2024-01-17T19:55:07.557Z,0.50
2024-01-17T19:57:36.073Z,0.50
2024-01-17T20:00:05.111Z,0.50
2024-01-17T20:02:40.008Z,0.50
2024-01-17T20:05:07.528Z,0.60
2024-01-17T20:07:34.696Z,0.50
2024-01-17T20:10:03.213Z,0.50
2024-01-17T20:12:30.863Z,0.50
2024-01-17T20:14:57.898Z,0.50
2024-01-17T20:17:25.968Z,0.50
2024-01-17T20:20:06.791Z,0.40
2024-01-17T20:22:36.499Z,0.50
2024-01-17T20:25:04.758Z,0.50
2024-01-17T20:27:37.581Z,0.60
2024-01-17T20:30:04.879Z,0.60
2024-01-17T20:32:31.987Z,0.60
2024-01-17T20:34:58.957Z,0.50
2024-01-17T20:37:26.004Z,0.50
2024-01-17T20:39:52.814Z,0.50
2024-01-17T20:42:20.616Z,0.50
2024-01-17T20:44:48.307Z,0.50
2024-01-17T20:47:15.803Z,0.50
2024-01-17T20:49:44.582Z,0.50
2024-01-17T20:52:11.877Z,0.50
2024-01-17T20:54:38.942Z,0.50
2024-01-17T20:57:05.932Z,0.50
2024-01-17T20:59:33.113Z,0.50
2024-01-17T21:01:59.931Z,0.50
2024-01-17T21:04:27.471Z,0.50
2024-01-17T21:06:54.646Z,0.50
2024-01-17T21:09:24.053Z,0.50
2024-01-17T21:11:51.032Z,0.50
2024-01-17T21:14:17.993Z,0.50
2024-01-17T21:16:47.774Z,0.60
2024-01-17T21:19:15.287Z,0.60
2024-01-17T21:21:45.565Z,0.60
2024-01-17T21:24:15.120Z,0.50
2024-01-17T21:26:45.209Z,0.50
2024-01-17T21:41:32.317Z,0.50
2024-01-17T21:43:59.475Z,0.50
2024-01-17T21:46:26.354Z,0.50
2024-01-17T21:48:56.011Z,0.50
2024-01-17T21:51:23.404Z,0.50
2024-01-17T21:53:50.709Z,0.50
2024-01-17T21:56:26.529Z,0.40
2024-01-17T21:58:53.853Z,0.40
2024-01-17T22:01:20.806Z,0.40
2024-01-17T22:03:47.748Z,0.40
2024-01-17T22:06:16.158Z,0.40
2024-01-17T22:08:49.156Z,0.30
2024-01-17T22:11:22.216Z,0.30
2024-01-17T22:13:49.087Z,0.20
2024-01-17T22:16:17.183Z,0.20
2024-01-17T22:18:44.132Z,0.20
2024-01-17T22:21:11.118Z,0.20
2024-01-17T22:23:38.027Z,0.20
2024-01-17T22:26:06.272Z,0.30
2024-01-17T22:28:33.069Z,0.30
2024-01-17T22:31:00.678Z,0.30
2024-01-17T22:33:27.757Z,0.40
2024-01-17T22:35:55.318Z,0.50
2024-01-17T22:38:22.184Z,0.40
2024-01-17T22:40:49.211Z,0.30
2024-01-17T22:43:16.598Z,0.30
2024-01-17T22:45:43.660Z,0.40
2024-01-17T22:48:11.061Z,0.40
2024-01-17T22:50:37.912Z,0.20
2024-01-17T22:53:05.299Z,0.20
2024-01-17T22:55:35.236Z,0.10
2024-01-17T22:58:03.442Z,0.10
2024-01-17T23:00:31.603Z,0.20
2024-01-17T23:02:58.899Z,0.20
2024-01-17T23:05:25.879Z,0.20
2024-01-17T23:10:22.767Z,0.20
2024-01-17T23:12:49.854Z,0.20
2024-01-17T23:15:17.417Z,0.30
2024-01-17T23:17:44.869Z,0.30
2024-01-17T23:20:12.003Z,0.30
2024-01-17T23:22:39.807Z,0.20
2024-01-17T23:25:08.104Z,0.20
2024-01-17T23:27:35.067Z,0.40
2024-01-17T23:30:02.286Z,0.40
2024-01-17T23:32:29.265Z,0.40
2024-01-17T23:34:56.441Z,0.50
2024-01-17T23:37:23.286Z,0.30
2024-01-17T23:39:50.830Z,0.20
2024-01-17T23:42:17.765Z,0.20
2024-01-17T23:44:44.571Z,0.20
2024-01-17T23:47:11.506Z,0.10
2024-01-17T23:49:39.806Z,0.00
2024-01-17T23:52:07.175Z,-0.10
2024-01-17T23:54:34.148Z,-0.10
2024-01-17T23:57:01.510Z,0.00
2024-01-17T23:59:28.781Z,0.00
